This is the latest recevied weather packets stored in our database for station/object EA1JAO-11. If no packets are shown the sender has not sent any weather packets the latest 1 day(s).
| Time | Temp. | Humidity | Pressure | Rain* | Wind** | Luminosity | Snow |
|---|---|---|---|---|---|---|---|
| 1777878391 | 12.78° C | 94% | 1014.1 hPa | - | - | - | - |
| 1777876589 | 12.22° C | 94% | 1013.8 hPa | - | - | - | - |
| 1777874788 | 11.67° C | 96% | 1013.6 hPa | - | - | - | - |
| 1777872988 | 11.11° C | 96% | 1013.5 hPa | - | - | - | - |
| 1777871188 | 11.11° C | 97% | 1013.5 hPa | - | - | - | - |
| 1777869390 | 11.11° C | 97% | 1013.7 hPa | - | - | - | - |
| 1777867588 | 11.11° C | 96% | 1013.6 hPa | - | - | - | - |
| 1777865788 | 11.11° C | 97% | 1013.7 hPa | - | - | - | - |
| 1777863988 | 11.67° C | 97% | 1013.8 hPa | - | - | - | - |
| 1777862188 | 11.67° C | 96% | 1013.9 hPa | - | - | - | - |
| 1777860388 | 11.67° C | 95% | 1013.7 hPa | - | - | - | - |
| 1777858588 | 11.11° C | 96% | 1013.8 hPa | - | - | - | - |
| 1777856788 | 10.56° C | 96% | 1014.1 hPa | - | - | - | - |
| 1777854989 | 10° C | 94% | 1014.2 hPa | - | - | - | - |
| 1777853185 | 10.56° C | 94% | 1014.2 hPa | - | - | - | - |
| 1777851385 | 11.11° C | 94% | 1014.4 hPa | - | - | - | - |
| 1777849585 | 11.67° C | 92% | 1014.2 hPa | - | - | - | - |
| 1777847785 | 12.22° C | 89% | 1014.4 hPa | - | - | - | - |
| 1777845985 | 12.78° C | 84% | 1014 hPa | - | - | - | - |
| 1777844185 | 12.78° C | 84% | 1014.1 hPa | - | - | - | - |
| 1777842385 | 12.78° C | 82% | 1014 hPa | - | - | - | - |
| 1777840585 | 12.78° C | 81% | 1013.7 hPa | - | - | - | - |
| 1777838785 | 13.89° C | 77% | 1013.3 hPa | - | - | - | - |
| 1777836984 | 14.44° C | 77% | 1012.8 hPa | - | - | - | - |
| 1777835184 | 15.56° C | 71% | 1012.6 hPa | - | - | - | - |
* Rain since midnight (hover to see other rain measurements)
** Current wind speed in m/s (hover to see current wind gust speed)